Portada
METAR-TAF:

METAR-TAF

Aeropuertos :

La Palma, España

Aeropuerto de La Palma

latitud: 28-37N, longitud: 017-45W, altitud: 29 m

Observación

El informe se hizo hace 39 minutos, a las 06:00 UTC
Viento 4 kt del noroeste, variando entre oeste y norte
Temperatura 20°C
Humedad 68%
Presión 1019 hPa
Visibilidad 10 km o más
Escasas nubes a una altura de 3000 ft

METAR: GCLA 150600Z 32004KT 280V010 9999 FEW030 20/14 Q1019

Hora: 07:39 (06:39 UTC)

Pronóstico

El informe se hizo hace 4 horas y 39 minutos, a las 02:00 UTC
Pronóstico válido del 15 a las 03 UTC al 16 a las 03 UTC
Viento 7 kt del noroeste
Visibilidad 10 km o más
Nubes dispersas a una altura de 3000 ft
Evolucionando progresivamente
del 15 a las 09 UTC al 15 a las 11 UTC
Viento 12 kt del noreste

TAF: GCLA 150200Z 1503/1603 32007KT 9999 SCT030 TX23/1514Z TN19/1506Z BECMG 1509/1511 04012KT

Observaciones y pronósticos meteorológicos de más de 4000 aeropuertos (mensajes METAR y TAF).

Los puntos amarillos y rojos representan las estaciones disponibles.

Ponga el ratón en el punto deseado para ver el nombre de la estación.

Haga clic para ver las observaciones y los pronósticos meteorológicos.

Para cambiar el mapa : haga clic en los botones verdes con una cruz de color negro para hacer un zoom, en el botón verde con un guión para alejar o en las flechas verdes para mapas adyacentes.


METAR-TAF: